Ellerbe, North Carolina
Current Conditions -  °F | °C
As of 10:35 AM on Friday 19 Dec 2014 (Local Time) from KRCZ Reporting Station
Clear Clear  
Wind Chill: 46°   Ceiling: Unl
Heat Index: 49°   Visibility: 10mi
Dew Point: 26°   Wind: 8mph
Humidity: 40%   Direction: 50°NE
Pressure: 30.18"   Gusts: NA
Location:  35.07°N, 79.76°W
Report Text: KRCZ 191535Z AUTO 05007KT 10SM CLR 10/M03 A3018 RMK AO2 T00951034
Loading
Personal Weather Stations






























Interactive Weather Map New forecast layout! Learn more

10-Day Weather Forecast

Advertisements
Track Severe Weather on mobile